createdAt,value
2022-11-13T00:00:51.625Z,1014.50
2022-11-13T00:01:50.403Z,1014.44
2022-11-13T00:02:53.491Z,1014.46
2022-11-13T00:03:50.389Z,1014.46
2022-11-13T00:04:50.353Z,1014.41
2022-11-13T00:06:11.347Z,1014.47
2022-11-13T00:06:54.799Z,1014.40
2022-11-13T00:07:51.331Z,1014.40
2022-11-13T00:08:50.563Z,1014.39
2022-11-13T00:09:50.307Z,1014.39
2022-11-13T00:10:51.555Z,1014.41
2022-11-13T00:11:50.504Z,1014.46
2022-11-13T00:12:50.281Z,1014.43
2022-11-13T00:13:50.275Z,1014.39
2022-11-13T00:14:53.285Z,1014.38
2022-11-13T00:15:51.266Z,1014.37
2022-11-13T00:16:53.244Z,1014.37
2022-11-13T00:17:50.448Z,1014.33
2022-11-13T00:18:50.230Z,1014.34
2022-11-13T00:19:53.229Z,1014.35
2022-11-13T00:20:53.225Z,1014.37
2022-11-13T00:21:53.436Z,1014.33
2022-11-13T00:23:12.446Z,1014.31
2022-11-13T00:23:50.217Z,1014.31
2022-11-13T00:24:51.401Z,1014.32
2022-11-13T00:25:50.141Z,1014.31
2022-11-13T00:26:50.135Z,1014.27
2022-11-13T00:27:51.382Z,1014.23
2022-11-13T00:28:50.108Z,1014.26
2022-11-13T00:29:50.118Z,1014.26
2022-11-13T00:30:50.356Z,1014.29
2022-11-13T00:31:50.077Z,1014.35
2022-11-13T00:32:51.066Z,1014.29
2022-11-13T00:34:51.286Z,1014.25
2022-11-13T00:35:50.298Z,1014.23
2022-11-13T00:36:50.027Z,1014.20
2022-11-13T00:38:18.378Z,1014.22
2022-11-13T00:39:14.047Z,1014.22
2022-11-13T00:39:50.015Z,1014.25
2022-11-13T00:40:49.993Z,1014.25
2022-11-13T00:41:53.006Z,1014.25
2022-11-13T00:42:49.959Z,1014.17
2022-11-13T00:43:49.963Z,1014.17
2022-11-13T00:44:50.174Z,1014.17
2022-11-13T00:45:49.955Z,1014.12
2022-11-13T00:46:50.953Z,1014.06
2022-11-13T00:47:53.193Z,1014.08
2022-11-13T00:48:51.138Z,1014.01
2022-11-13T00:49:50.920Z,1014.04
2022-11-13T00:50:49.886Z,1014.01
2022-11-13T00:51:49.908Z,1014.01
2022-11-13T00:52:49.891Z,1014.00
2022-11-13T00:53:49.875Z,1013.95
2022-11-13T00:54:49.847Z,1013.99
2022-11-13T00:55:50.058Z,1013.98
2022-11-13T00:56:50.079Z,1013.92
2022-11-13T00:57:52.827Z,1013.97
2022-11-13T00:58:49.809Z,1013.97
2022-11-13T00:59:49.782Z,1013.91
2022-11-13T01:00:52.803Z,1013.93
2022-11-13T01:01:53.154Z,1013.92
2022-11-13T01:02:49.793Z,1013.88
2022-11-13T01:03:49.743Z,1013.88
2022-11-13T01:04:52.806Z,1013.85
2022-11-13T01:05:52.780Z,1013.83
2022-11-13T01:06:52.775Z,1013.88
2022-11-13T01:07:49.732Z,1013.86
2022-11-13T01:08:50.951Z,1013.87
2022-11-13T01:10:05.340Z,1013.86
2022-11-13T01:10:53.653Z,1013.87
2022-11-13T01:11:50.704Z,1013.85
2022-11-13T01:12:49.698Z,1013.84
2022-11-13T01:13:49.897Z,1013.85
2022-11-13T01:14:52.907Z,1013.86
2022-11-13T01:15:49.853Z,1013.87
2022-11-13T01:16:56.765Z,1013.86
2022-11-13T01:17:52.884Z,1013.84
2022-11-13T01:18:49.623Z,1013.85
2022-11-13T01:19:49.846Z,1013.82
2022-11-13T01:20:49.575Z,1013.82
2022-11-13T01:21:49.581Z,1013.86
2022-11-13T01:22:50.598Z,1013.83
2022-11-13T01:23:50.565Z,1013.82
2022-11-13T01:24:49.811Z,1013.80
2022-11-13T01:25:49.785Z,1013.81
2022-11-13T01:26:50.556Z,1013.79
2022-11-13T01:27:49.518Z,1013.77
2022-11-13T01:28:49.496Z,1013.76
2022-11-13T01:29:49.698Z,1013.80
2022-11-13T01:30:50.734Z,1013.80
2022-11-13T01:32:04.777Z,1013.75
2022-11-13T01:32:56.744Z,1013.76
2022-11-13T01:34:05.083Z,1013.78
2022-11-13T01:34:49.459Z,1013.76
2022-11-13T01:35:49.690Z,1013.83
2022-11-13T01:36:52.445Z,1013.78
2022-11-13T01:37:49.648Z,1013.83
2022-11-13T01:38:52.416Z,1013.83
2022-11-13T01:39:49.395Z,1013.80
2022-11-13T01:40:49.391Z,1013.86
2022-11-13T01:41:49.632Z,1013.86
2022-11-13T01:42:49.588Z,1013.86
2022-11-13T01:44:10.532Z,1013.83
2022-11-13T01:44:49.357Z,1013.84
2022-11-13T01:45:52.378Z,1013.83
2022-11-13T01:46:49.339Z,1013.77
2022-11-13T01:47:49.317Z,1013.78
2022-11-13T01:49:04.682Z,1013.78
2022-11-13T01:49:49.547Z,1013.80
2022-11-13T01:50:49.283Z,1013.78
2022-11-13T01:51:52.278Z,1013.76
2022-11-13T01:52:50.505Z,1013.71
2022-11-13T01:53:49.237Z,1013.73
2022-11-13T01:54:49.234Z,1013.77
2022-11-13T01:55:52.517Z,1013.74
2022-11-13T01:56:50.240Z,1013.71
2022-11-13T01:57:49.468Z,1013.76
2022-11-13T01:58:50.206Z,1013.71
2022-11-13T01:59:52.228Z,1013.66
2022-11-13T02:00:50.455Z,1013.74
2022-11-13T02:01:52.526Z,1013.62
2022-11-13T02:02:49.191Z,1013.69
2022-11-13T02:03:49.136Z,1013.77
2022-11-13T02:04:49.155Z,1013.78
2022-11-13T02:05:49.134Z,1013.77
2022-11-13T02:06:49.176Z,1013.77
2022-11-13T02:07:49.109Z,1013.73
2022-11-13T02:08:49.107Z,1013.79
2022-11-13T02:09:52.145Z,1013.77
2022-11-13T02:10:52.100Z,1013.76
2022-11-13T02:11:52.339Z,1013.76
2022-11-13T02:12:50.319Z,1013.75
2022-11-13T02:13:49.062Z,1013.72
2022-11-13T02:14:52.307Z,1013.72
2022-11-13T02:15:49.264Z,1013.70
2022-11-13T02:16:49.023Z,1013.74
2022-11-13T02:17:49.001Z,1013.69
2022-11-13T02:18:52.019Z,1013.69
2022-11-13T02:19:49.235Z,1013.68
2022-11-13T02:20:49.007Z,1013.64
2022-11-13T02:21:50.223Z,1013.65
2022-11-13T02:22:49.183Z,1013.65
2022-11-13T02:23:52.221Z,1013.67
2022-11-13T02:24:54.447Z,1013.67
2022-11-13T02:25:49.945Z,1013.64
2022-11-13T02:26:49.141Z,1013.63
2022-11-13T02:27:48.908Z,1013.62
2022-11-13T02:28:49.130Z,1013.63
2022-11-13T02:29:49.136Z,1013.60
2022-11-13T02:30:51.897Z,1013.60
2022-11-13T02:31:48.889Z,1013.59
2022-11-13T02:32:48.853Z,1013.62
2022-11-13T02:33:48.834Z,1013.64
2022-11-13T02:34:48.832Z,1013.65
2022-11-13T02:35:49.111Z,1013.65
2022-11-13T02:36:49.024Z,1013.62
2022-11-13T02:37:48.805Z,1013.61
2022-11-13T02:38:48.777Z,1013.60
2022-11-13T02:39:48.789Z,1013.60
2022-11-13T02:40:55.849Z,1013.61
2022-11-13T02:41:49.003Z,1013.62
2022-11-13T02:42:48.766Z,1013.59
2022-11-13T02:43:48.730Z,1013.61
2022-11-13T02:44:48.744Z,1013.60
2022-11-13T02:45:48.726Z,1013.49
2022-11-13T02:46:48.734Z,1013.47
2022-11-13T02:47:48.686Z,1013.50
2022-11-13T02:48:55.837Z,1013.55
2022-11-13T02:49:49.713Z,1013.48
2022-11-13T02:50:49.670Z,1013.48
2022-11-13T02:51:48.891Z,1013.47
2022-11-13T02:52:48.977Z,1013.43
2022-11-13T02:53:48.640Z,1013.43
2022-11-13T02:55:10.863Z,1013.42
2022-11-13T02:55:48.617Z,1013.42
2022-11-13T02:56:48.617Z,1013.40
2022-11-13T02:57:48.847Z,1013.37
2022-11-13T02:58:48.585Z,1013.40
2022-11-13T02:59:48.578Z,1013.35
2022-11-13T03:00:49.620Z,1013.36
2022-11-13T03:01:49.767Z,1013.37
2022-11-13T03:02:48.567Z,1013.34
2022-11-13T03:03:59.107Z,1013.34
2022-11-13T03:05:11.519Z,1013.34
2022-11-13T03:05:50.767Z,1013.32
2022-11-13T03:06:49.566Z,1013.36
2022-11-13T03:07:48.519Z,1013.34
2022-11-13T03:08:48.501Z,1013.35
2022-11-13T03:09:51.525Z,1013.33
2022-11-13T03:10:55.537Z,1013.37
2022-11-13T03:11:51.760Z,1013.33
2022-11-13T03:12:48.724Z,1013.32
2022-11-13T03:13:51.457Z,1013.30
2022-11-13T03:14:51.471Z,1013.27
2022-11-13T03:15:48.423Z,1013.27
2022-11-13T03:16:51.431Z,1013.28
2022-11-13T03:17:48.649Z,1013.23
2022-11-13T03:18:48.430Z,1013.21
2022-11-13T03:19:48.397Z,1013.23
2022-11-13T03:21:04.023Z,1013.24
2022-11-13T03:21:48.355Z,1013.26
2022-11-13T03:22:49.356Z,1013.26
2022-11-13T03:23:48.590Z,1013.24
2022-11-13T03:24:48.563Z,1013.24
2022-11-13T03:25:49.313Z,1013.24
2022-11-13T03:26:49.552Z,1013.24
2022-11-13T03:27:48.544Z,1013.22
2022-11-13T03:28:48.531Z,1013.19
2022-11-13T03:29:48.506Z,1013.21
2022-11-13T03:30:48.275Z,1013.15
2022-11-13T03:31:49.256Z,1013.16
2022-11-13T03:32:55.460Z,1013.16
2022-11-13T03:33:48.243Z,1013.17
2022-11-13T03:34:48.249Z,1013.19
2022-11-13T03:35:48.205Z,1013.17
2022-11-13T03:36:55.341Z,1013.12
2022-11-13T03:37:48.207Z,1013.17
2022-11-13T03:38:48.200Z,1013.11
2022-11-13T03:39:49.182Z,1013.15
2022-11-13T03:40:48.177Z,1013.14
2022-11-13T03:41:48.397Z,1013.17
2022-11-13T03:42:55.260Z,1013.09
2022-11-13T03:43:51.413Z,1013.15
2022-11-13T03:44:48.354Z,1013.12
2022-11-13T03:45:48.346Z,1013.19
2022-11-13T03:46:48.121Z,1013.17
2022-11-13T03:47:48.082Z,1013.17
2022-11-13T03:48:48.088Z,1013.16
2022-11-13T03:49:48.067Z,1013.11
2022-11-13T03:50:48.103Z,1013.14
2022-11-13T03:51:49.061Z,1013.15
2022-11-13T03:52:48.036Z,1013.16
2022-11-13T03:53:48.046Z,1013.11
2022-11-13T03:54:55.143Z,1013.10
2022-11-13T03:55:48.242Z,1013.12
2022-11-13T03:56:48.021Z,1013.11
2022-11-13T03:57:51.017Z,1013.06
2022-11-13T03:58:55.267Z,1013.09
2022-11-13T03:59:48.199Z,1013.10
2022-11-13T04:00:48.975Z,1013.12
2022-11-13T04:01:48.032Z,1013.09
2022-11-13T04:02:47.968Z,1013.07
2022-11-13T04:04:08.948Z,1013.06
2022-11-13T04:04:47.940Z,1013.08
2022-11-13T04:05:47.906Z,1013.04
2022-11-13T04:06:48.929Z,1013.07
2022-11-13T04:07:47.939Z,1013.09
2022-11-13T04:08:47.903Z,1013.06
2022-11-13T04:09:47.853Z,1013.07
2022-11-13T04:10:47.862Z,1013.10
2022-11-13T04:11:47.854Z,1013.05
2022-11-13T04:12:48.846Z,1013.07
2022-11-13T04:13:47.855Z,1013.01
2022-11-13T04:14:50.835Z,1013.04
2022-11-13T04:15:47.811Z,1013.01
2022-11-13T04:16:47.802Z,1013.04
2022-11-13T04:17:47.787Z,1013.03
2022-11-13T04:18:47.796Z,1013.05
2022-11-13T04:19:47.792Z,1013.02
2022-11-13T04:20:50.787Z,1012.98
2022-11-13T04:21:47.753Z,1012.98
2022-11-13T04:22:47.750Z,1012.95
2022-11-13T04:23:48.745Z,1012.94
2022-11-13T04:24:47.733Z,1012.94
2022-11-13T04:25:54.971Z,1012.93
2022-11-13T04:26:47.687Z,1012.91
2022-11-13T04:27:47.678Z,1012.87
2022-11-13T04:28:47.701Z,1012.88
2022-11-13T04:29:47.697Z,1012.84
2022-11-13T04:30:47.656Z,1012.84
2022-11-13T04:32:09.676Z,1012.84
2022-11-13T04:32:47.658Z,1012.85
2022-11-13T04:33:50.658Z,1012.84
2022-11-13T04:34:48.643Z,1012.79
2022-11-13T04:35:47.635Z,1012.78
2022-11-13T04:36:48.617Z,1012.78
2022-11-13T04:37:47.826Z,1012.75
2022-11-13T04:38:47.796Z,1012.77
2022-11-13T04:39:48.809Z,1012.73
2022-11-13T04:40:47.575Z,1012.70
2022-11-13T04:41:51.286Z,1012.70
2022-11-13T04:42:48.787Z,1012.71
2022-11-13T04:43:50.799Z,1012.78
2022-11-13T04:44:47.505Z,1012.75
2022-11-13T04:45:47.518Z,1012.74
2022-11-13T04:46:47.527Z,1012.77
2022-11-13T04:47:48.514Z,1012.74
2022-11-13T04:49:02.779Z,1012.70
2022-11-13T04:49:47.687Z,1012.73
2022-11-13T04:50:48.457Z,1012.71
2022-11-13T04:51:50.762Z,1012.71
2022-11-13T04:52:47.680Z,1012.69
2022-11-13T04:53:54.587Z,1012.69
2022-11-13T04:54:54.493Z,1012.69
2022-11-13T04:55:54.657Z,1012.66
2022-11-13T04:56:47.413Z,1012.65
2022-11-13T04:57:47.419Z,1012.66
2022-11-13T04:58:50.411Z,1012.63
2022-11-13T04:59:48.628Z,1012.62
2022-11-13T05:00:47.337Z,1012.59
2022-11-13T05:01:54.878Z,1012.59
2022-11-13T05:02:47.327Z,1012.59
2022-11-13T05:03:47.574Z,1012.55
2022-11-13T05:04:48.313Z,1012.53
2022-11-13T05:05:47.534Z,1012.56
2022-11-13T05:06:48.321Z,1012.56
2022-11-13T05:07:50.310Z,1012.51
2022-11-13T05:08:48.279Z,1012.53
2022-11-13T05:09:47.282Z,1012.48
2022-11-13T05:10:50.288Z,1012.50
2022-11-13T05:11:48.261Z,1012.45
2022-11-13T05:12:50.466Z,1012.45
2022-11-13T05:13:47.220Z,1012.43
2022-11-13T05:14:47.453Z,1012.43
2022-11-13T05:15:47.440Z,1012.41
2022-11-13T05:16:47.195Z,1012.42
2022-11-13T05:17:50.447Z,1012.44
2022-11-13T05:18:47.393Z,1012.42
2022-11-13T05:19:54.401Z,1012.40
2022-11-13T05:20:47.395Z,1012.41
2022-11-13T05:21:50.168Z,1012.41
2022-11-13T05:22:50.135Z,1012.39
2022-11-13T05:23:47.371Z,1012.39
2022-11-13T05:24:48.346Z,1012.39
2022-11-13T05:25:48.105Z,1012.41
2022-11-13T05:26:47.105Z,1012.41
2022-11-13T05:27:48.099Z,1012.36
2022-11-13T05:28:47.282Z,1012.35
2022-11-13T05:29:50.069Z,1012.33
2022-11-13T05:30:54.109Z,1012.34
2022-11-13T05:31:47.053Z,1012.35
2022-11-13T05:32:47.246Z,1012.34
2022-11-13T05:33:47.021Z,1012.30
2022-11-13T05:34:50.010Z,1012.34
2022-11-13T05:35:47.009Z,1012.35
2022-11-13T05:36:47.217Z,1012.30
2022-11-13T05:37:47.241Z,1012.31
2022-11-13T05:38:47.188Z,1012.32
2022-11-13T05:39:47.202Z,1012.32
2022-11-13T05:40:47.160Z,1012.26
2022-11-13T05:41:46.944Z,1012.31
2022-11-13T05:42:46.920Z,1012.26
2022-11-13T05:43:47.176Z,1012.27
2022-11-13T05:44:47.126Z,1012.24
2022-11-13T05:45:49.919Z,1012.27
2022-11-13T05:46:46.872Z,1012.26
2022-11-13T05:47:46.869Z,1012.28
2022-11-13T05:48:47.108Z,1012.26
2022-11-13T05:49:47.881Z,1012.26
2022-11-13T05:50:46.843Z,1012.25
2022-11-13T05:51:46.835Z,1012.19
2022-11-13T05:52:47.839Z,1012.21
2022-11-13T05:53:46.819Z,1012.22
2022-11-13T05:54:46.813Z,1012.22
2022-11-13T05:55:47.020Z,1012.20
2022-11-13T05:56:46.780Z,1012.22
2022-11-13T05:57:46.768Z,1012.16
2022-11-13T05:58:46.773Z,1012.13
2022-11-13T05:59:46.990Z,1012.11
2022-11-13T06:00:46.809Z,1012.10
2022-11-13T06:01:46.777Z,1012.10
2022-11-13T06:02:50.013Z,1012.09
2022-11-13T06:03:47.723Z,1012.08
2022-11-13T06:04:46.723Z,1012.07
2022-11-13T06:05:54.056Z,1012.08
2022-11-13T06:06:53.993Z,1012.06
2022-11-13T06:07:46.667Z,1012.05
2022-11-13T06:08:46.656Z,1012.07
2022-11-13T06:09:46.650Z,1012.07
2022-11-13T06:10:46.921Z,1012.07
2022-11-13T06:11:46.851Z,1012.06
2022-11-13T06:12:46.623Z,1012.03
2022-11-13T06:13:46.590Z,1012.06
2022-11-13T06:14:46.833Z,1012.06
2022-11-13T06:15:46.841Z,1012.02
2022-11-13T06:16:46.562Z,1012.06
2022-11-13T06:17:53.915Z,1012.07
2022-11-13T06:18:47.826Z,1012.05
2022-11-13T06:19:46.764Z,1012.04
2022-11-13T06:20:46.801Z,1012.04
2022-11-13T06:21:46.772Z,1012.02
2022-11-13T06:22:47.548Z,1012.03
2022-11-13T06:23:53.624Z,1011.98
2022-11-13T06:24:46.737Z,1012.00
2022-11-13T06:25:46.705Z,1011.98
2022-11-13T06:26:46.521Z,1012.03
2022-11-13T06:27:49.509Z,1012.00
2022-11-13T06:28:46.674Z,1012.00
2022-11-13T06:29:47.458Z,1011.97
2022-11-13T06:30:46.422Z,1011.94
2022-11-13T06:31:46.438Z,1011.93
2022-11-13T06:32:46.704Z,1011.94
2022-11-13T06:33:46.392Z,1011.90
2022-11-13T06:34:46.398Z,1011.89
2022-11-13T06:35:49.404Z,1011.92
2022-11-13T06:36:46.606Z,1011.93
2022-11-13T06:37:46.595Z,1011.92
2022-11-13T06:38:46.627Z,1011.93
2022-11-13T06:39:46.345Z,1011.88
2022-11-13T06:40:47.357Z,1011.84
2022-11-13T06:41:47.585Z,1011.82
2022-11-13T06:42:53.586Z,1011.88
2022-11-13T06:43:54.428Z,1011.86
2022-11-13T06:44:46.308Z,1011.88
2022-11-13T06:45:46.268Z,1011.85
2022-11-13T06:46:46.281Z,1011.87
2022-11-13T06:47:46.268Z,1011.81
2022-11-13T06:48:53.530Z,1011.82
2022-11-13T06:49:46.283Z,1011.79
2022-11-13T06:50:48.599Z,1011.78
2022-11-13T06:51:46.447Z,1011.76
2022-11-13T06:53:10.476Z,1011.76
2022-11-13T06:53:46.425Z,1011.76
2022-11-13T06:54:49.447Z,1011.74
2022-11-13T06:55:46.438Z,1011.77
2022-11-13T06:56:46.181Z,1011.72
2022-11-13T06:57:46.162Z,1011.72
2022-11-13T06:58:46.152Z,1011.69
2022-11-13T06:59:46.358Z,1011.74
2022-11-13T07:00:46.457Z,1011.72
2022-11-13T07:01:53.545Z,1011.73
2022-11-13T07:02:47.140Z,1011.77
2022-11-13T07:03:49.132Z,1011.74
2022-11-13T07:04:46.096Z,1011.76
2022-11-13T07:05:46.330Z,1011.71
2022-11-13T07:06:53.381Z,1011.75
2022-11-13T07:07:46.273Z,1011.75
2022-11-13T07:08:46.289Z,1011.75
2022-11-13T07:09:46.270Z,1011.77
2022-11-13T07:10:46.299Z,1011.75
2022-11-13T07:11:46.018Z,1011.70
2022-11-13T07:12:48.409Z,1011.70
2022-11-13T07:13:50.283Z,1011.58
2022-11-13T07:14:45.985Z,1011.67
2022-11-13T07:15:45.979Z,1011.65
2022-11-13T07:17:08.013Z,1011.69
2022-11-13T07:17:48.208Z,1011.69
2022-11-13T07:18:48.950Z,1011.68
2022-11-13T07:19:45.932Z,1011.71
2022-11-13T07:20:45.935Z,1011.74
2022-11-13T07:21:45.911Z,1011.72
2022-11-13T07:22:45.936Z,1011.72
2022-11-13T07:23:49.150Z,1011.69
2022-11-13T07:24:46.119Z,1011.73
2022-11-13T07:25:46.093Z,1011.72
2022-11-13T07:26:45.882Z,1011.73
2022-11-13T07:27:45.871Z,1011.69
2022-11-13T07:28:53.254Z,1011.75
2022-11-13T07:29:46.042Z,1011.68
2022-11-13T07:30:46.054Z,1011.66
2022-11-13T07:31:46.041Z,1011.76
2022-11-13T07:32:46.044Z,1011.72
2022-11-13T07:33:45.899Z,1011.64
2022-11-13T07:34:46.773Z,1011.63
2022-11-13T07:35:46.779Z,1011.56
2022-11-13T07:37:01.213Z,1011.60
2022-11-13T07:37:45.987Z,1011.56
2022-11-13T07:39:01.262Z,1011.59
2022-11-13T07:39:48.764Z,1011.55
2022-11-13T07:40:52.889Z,1011.57
2022-11-13T07:41:46.960Z,1011.55
2022-11-13T07:42:46.709Z,1011.53
2022-11-13T07:43:45.724Z,1011.58
2022-11-13T07:44:54.437Z,1011.53
2022-11-13T07:45:47.685Z,1011.55
2022-11-13T07:46:45.654Z,1011.58
2022-11-13T07:47:45.643Z,1011.57
2022-11-13T07:48:46.658Z,1011.57
2022-11-13T07:49:45.641Z,1011.55
2022-11-13T07:50:45.622Z,1011.54
2022-11-13T07:51:45.860Z,1011.51
2022-11-13T07:52:45.595Z,1011.54
2022-11-13T07:53:48.604Z,1011.50
2022-11-13T07:54:45.592Z,1011.51
2022-11-13T07:55:45.792Z,1011.44
2022-11-13T07:56:45.563Z,1011.46
2022-11-13T07:57:45.775Z,1011.42
2022-11-13T07:58:46.797Z,1011.39
2022-11-13T07:59:45.749Z,1011.43
2022-11-13T08:00:45.827Z,1011.42
2022-11-13T08:01:45.511Z,1011.44
2022-11-13T08:02:45.723Z,1011.37
2022-11-13T08:03:45.748Z,1011.39
2022-11-13T08:04:45.475Z,1011.34
2022-11-13T08:05:45.484Z,1011.36
2022-11-13T08:06:46.501Z,1011.33
2022-11-13T08:07:51.192Z,1011.36
2022-11-13T08:08:45.449Z,1011.33
2022-11-13T08:09:45.448Z,1011.39
2022-11-13T08:10:46.431Z,1011.34
2022-11-13T08:11:46.659Z,1011.35
2022-11-13T08:12:45.616Z,1011.34
2022-11-13T08:13:45.627Z,1011.32
2022-11-13T08:14:45.383Z,1011.31
2022-11-13T08:15:45.626Z,1011.30
2022-11-13T08:16:52.519Z,1011.31
2022-11-13T08:17:45.585Z,1011.32
2022-11-13T08:18:52.576Z,1011.32
2022-11-13T08:19:48.573Z,1011.36
2022-11-13T08:20:48.356Z,1011.35
2022-11-13T08:21:45.300Z,1011.33
2022-11-13T08:22:45.307Z,1011.32
2022-11-13T08:23:45.277Z,1011.25
2022-11-13T08:24:46.309Z,1011.31
2022-11-13T08:25:46.255Z,1011.32
2022-11-13T08:26:45.514Z,1011.32
2022-11-13T08:27:45.469Z,1011.32
2022-11-13T08:28:45.459Z,1011.32
2022-11-13T08:29:45.217Z,1011.31
2022-11-13T08:30:48.261Z,1011.27
2022-11-13T08:31:45.439Z,1011.27
2022-11-13T08:32:45.188Z,1011.24
2022-11-13T08:33:45.201Z,1011.21
2022-11-13T08:34:48.218Z,1011.21
2022-11-13T08:35:46.176Z,1011.18
2022-11-13T08:36:45.169Z,1011.21
2022-11-13T08:37:46.130Z,1011.21
2022-11-13T08:38:46.442Z,1011.22
2022-11-13T08:39:45.140Z,1011.15
2022-11-13T08:40:45.116Z,1011.19
2022-11-13T08:41:45.098Z,1011.16
2022-11-13T08:42:45.102Z,1011.13
2022-11-13T08:43:48.128Z,1011.13
2022-11-13T08:44:45.087Z,1011.17
2022-11-13T08:45:45.060Z,1011.16
2022-11-13T08:46:45.050Z,1011.11
2022-11-13T08:47:45.032Z,1011.16
2022-11-13T08:48:45.051Z,1011.13
2022-11-13T08:49:46.037Z,1011.19
2022-11-13T08:50:48.034Z,1011.14
2022-11-13T08:51:48.263Z,1011.20
2022-11-13T08:52:52.132Z,1011.17
2022-11-13T08:53:45.242Z,1011.19
2022-11-13T08:54:44.976Z,1011.18
2022-11-13T08:55:45.213Z,1011.19
2022-11-13T08:56:51.558Z,1011.19
2022-11-13T08:57:47.173Z,1011.12
2022-11-13T08:58:44.933Z,1011.06
2022-11-13T08:59:44.934Z,1011.05
2022-11-13T09:00:45.927Z,1011.05
2022-11-13T09:01:45.922Z,1011.08
2022-11-13T09:02:46.156Z,1011.05
2022-11-13T09:03:46.114Z,1011.08
2022-11-13T09:04:51.991Z,1011.07
2022-11-13T09:05:44.890Z,1011.03
2022-11-13T09:06:44.895Z,1011.02
2022-11-13T09:07:47.864Z,1010.99
2022-11-13T09:08:47.871Z,1010.96
2022-11-13T09:09:52.027Z,1010.99
2022-11-13T09:10:44.837Z,1011.04
2022-11-13T09:11:44.790Z,1011.00
2022-11-13T09:12:44.815Z,1011.03
2022-11-13T09:13:48.415Z,1011.05
2022-11-13T09:14:45.763Z,1011.00
2022-11-13T09:15:44.985Z,1010.95
2022-11-13T09:16:45.005Z,1010.96
2022-11-13T09:17:52.022Z,1010.93
2022-11-13T09:18:51.934Z,1010.95
2022-11-13T09:19:51.829Z,1010.92
2022-11-13T09:20:44.935Z,1010.92
2022-11-13T09:21:44.966Z,1010.94
2022-11-13T09:22:51.791Z,1010.92
2022-11-13T09:23:44.918Z,1010.89
2022-11-13T09:24:44.685Z,1010.91
2022-11-13T09:25:45.664Z,1010.88
2022-11-13T09:26:44.899Z,1010.84
2022-11-13T09:27:44.655Z,1010.89
2022-11-13T09:28:44.621Z,1010.84
2022-11-13T09:29:44.637Z,1010.75
2022-11-13T09:30:44.822Z,1010.77
2022-11-13T09:31:51.936Z,1010.73
2022-11-13T09:32:44.574Z,1010.71
2022-11-13T09:33:45.829Z,1010.68
2022-11-13T09:34:44.619Z,1010.68
2022-11-13T09:35:44.788Z,1010.64
2022-11-13T09:36:44.776Z,1010.62
2022-11-13T09:37:44.546Z,1010.62
2022-11-13T09:38:44.531Z,1010.62
2022-11-13T09:39:44.545Z,1010.59
2022-11-13T09:40:44.503Z,1010.61
2022-11-13T09:41:44.518Z,1010.59
2022-11-13T09:42:51.894Z,1010.59
2022-11-13T09:43:44.704Z,1010.54
2022-11-13T09:44:44.456Z,1010.53
2022-11-13T09:45:44.711Z,1010.55
2022-11-13T09:46:45.707Z,1010.55
2022-11-13T09:47:47.478Z,1010.55
2022-11-13T09:48:47.470Z,1010.56
2022-11-13T09:49:44.419Z,1010.56
2022-11-13T09:50:44.415Z,1010.54
2022-11-13T09:52:05.277Z,1010.54
2022-11-13T09:52:45.617Z,1010.54
2022-11-13T09:53:45.632Z,1010.54
2022-11-13T09:54:44.366Z,1010.48
2022-11-13T09:55:44.366Z,1010.51
2022-11-13T09:57:00.070Z,1010.46
2022-11-13T09:57:45.345Z,1010.42
2022-11-13T09:58:44.537Z,1010.43
2022-11-13T09:59:44.345Z,1010.42
2022-11-13T10:00:44.549Z,1010.42
2022-11-13T10:01:44.303Z,1010.42
2022-11-13T10:02:47.314Z,1010.38
2022-11-13T10:04:01.550Z,1010.36
2022-11-13T10:04:45.273Z,1010.38
2022-11-13T10:05:44.274Z,1010.34
2022-11-13T10:06:47.514Z,1010.33
2022-11-13T10:07:47.499Z,1010.28
2022-11-13T10:09:05.451Z,1010.26
2022-11-13T10:09:44.227Z,1010.31
2022-11-13T10:10:44.193Z,1010.24
2022-11-13T10:11:44.177Z,1010.26
2022-11-13T10:12:45.190Z,1010.24
2022-11-13T10:13:44.182Z,1010.23
2022-11-13T10:14:44.202Z,1010.22
2022-11-13T10:15:44.171Z,1010.15
2022-11-13T10:16:44.376Z,1010.15
2022-11-13T10:17:45.160Z,1010.09
2022-11-13T10:18:44.136Z,1010.06
2022-11-13T10:19:51.213Z,1010.05
2022-11-13T10:20:44.122Z,1010.01
2022-11-13T10:21:44.093Z,1009.99
2022-11-13T10:22:51.398Z,1009.98
2022-11-13T10:23:44.066Z,1009.95
2022-11-13T10:24:47.073Z,1009.99
2022-11-13T10:25:44.058Z,1010.01
2022-11-13T10:26:44.041Z,1010.00
2022-11-13T10:27:59.440Z,1009.95
2022-11-13T10:28:52.416Z,1009.93
2022-11-13T10:29:49.032Z,1009.91
2022-11-13T10:30:44.008Z,1009.87
2022-11-13T10:31:47.037Z,1009.91
2022-11-13T10:32:43.996Z,1009.84
2022-11-13T10:33:43.993Z,1009.75
2022-11-13T10:34:44.961Z,1009.75
2022-11-13T10:35:43.949Z,1009.71
2022-11-13T10:36:44.963Z,1009.70
2022-11-13T10:37:44.929Z,1009.71
2022-11-13T10:38:44.937Z,1009.68
2022-11-13T10:39:43.924Z,1009.64
2022-11-13T10:40:44.098Z,1009.53
2022-11-13T10:41:43.892Z,1009.50
2022-11-13T10:42:43.864Z,1009.44
2022-11-13T10:43:43.863Z,1009.42
2022-11-13T10:44:44.085Z,1009.40
2022-11-13T10:45:43.843Z,1009.31
2022-11-13T10:46:44.103Z,1009.24
2022-11-13T10:48:03.044Z,1009.26
2022-11-13T10:48:45.043Z,1009.22
2022-11-13T10:49:44.040Z,1009.24
2022-11-13T10:50:44.016Z,1009.22
2022-11-13T10:51:44.058Z,1009.13
2022-11-13T10:52:43.764Z,1009.10
2022-11-13T10:53:43.996Z,1009.08
2022-11-13T10:54:43.766Z,1008.99
2022-11-13T10:55:43.737Z,1008.94
2022-11-13T10:56:43.984Z,1008.89
2022-11-13T10:57:47.052Z,1008.88
2022-11-13T10:58:43.718Z,1008.87
2022-11-13T10:59:43.950Z,1008.85
2022-11-13T11:00:43.691Z,1008.78
2022-11-13T11:01:43.985Z,1008.79
2022-11-13T11:02:44.681Z,1008.74
2022-11-13T11:03:43.884Z,1008.71
2022-11-13T11:04:43.899Z,1008.68
2022-11-13T11:05:43.624Z,1008.73
2022-11-13T11:07:44.675Z,1008.75
2022-11-13T11:08:43.625Z,1008.76
2022-11-13T11:09:43.816Z,1008.83
2022-11-13T11:10:43.602Z,1008.75
2022-11-13T11:11:43.807Z,1008.80
2022-11-13T11:12:43.819Z,1008.82
2022-11-13T11:13:44.586Z,1008.83
2022-11-13T11:14:43.557Z,1008.83
2022-11-13T11:15:44.535Z,1008.83
2022-11-13T11:16:43.761Z,1008.83
2022-11-13T11:17:43.747Z,1008.81
2022-11-13T11:18:43.737Z,1008.82
2022-11-13T11:19:43.497Z,1008.80
2022-11-13T11:20:46.535Z,1008.79
2022-11-13T11:21:44.708Z,1008.83
2022-11-13T11:22:43.487Z,1008.81
2022-11-13T11:23:55.730Z,1008.85
2022-11-13T11:24:44.683Z,1008.85
2022-11-13T11:25:46.466Z,1008.83
2022-11-13T11:26:50.681Z,1008.80
2022-11-13T11:27:43.635Z,1008.76
2022-11-13T11:28:43.416Z,1008.79
2022-11-13T11:29:43.448Z,1008.72
2022-11-13T11:30:43.615Z,1008.72
2022-11-13T11:31:44.398Z,1008.67
2022-11-13T11:32:59.035Z,1008.65
2022-11-13T11:33:43.602Z,1008.68
2022-11-13T11:34:43.341Z,1008.72
2022-11-13T11:35:43.334Z,1008.72
2022-11-13T11:36:44.333Z,1008.67
2022-11-13T11:37:50.377Z,1008.69
2022-11-13T11:38:43.319Z,1008.69
2022-11-13T11:39:46.347Z,1008.72
2022-11-13T11:41:04.292Z,1008.75
2022-11-13T11:42:04.271Z,1008.69
2022-11-13T11:42:44.303Z,1008.66
2022-11-13T11:43:43.494Z,1008.56
2022-11-13T11:44:43.240Z,1008.54
2022-11-13T11:45:46.273Z,1008.55
2022-11-13T11:46:46.802Z,1008.53
2022-11-13T11:47:44.450Z,1008.48
2022-11-13T11:48:43.425Z,1008.46
2022-11-13T11:49:43.211Z,1008.45
2022-11-13T11:50:46.212Z,1008.44
2022-11-13T11:51:43.166Z,1008.49
2022-11-13T11:52:43.161Z,1008.47
2022-11-13T11:53:46.157Z,1008.45
2022-11-13T11:54:43.193Z,1008.45
2022-11-13T11:55:43.604Z,1008.47
2022-11-13T11:56:50.334Z,1008.47
2022-11-13T11:57:43.110Z,1008.47
2022-11-13T11:58:43.097Z,1008.50
2022-11-13T11:59:43.349Z,1008.44
2022-11-13T12:00:43.327Z,1008.42
2022-11-13T12:01:44.088Z,1008.39
2022-11-13T12:02:50.276Z,1008.36
2022-11-13T12:03:43.031Z,1008.35
2022-11-13T12:04:44.342Z,1008.32
2022-11-13T12:05:43.118Z,1008.23
2022-11-13T12:06:43.258Z,1008.32
2022-11-13T12:07:43.013Z,1008.32